Elmer M — WYZ8282 — position and weather

sailwx.info

Track history (hours):
 
Tides and Currents Weather Stations Pressure Air Temp Water Temp Dewpoint Dewpoint Depression Visibility Wind Speed Wind Dir Waves Ship Positions

Elmer M

Owner: Manson Construction Co., SEATTLE, WA. More information available from US FCC via Universal Licensing System and Coast Guard Vessel Documentation Center.

Last reported at 2018-Feb-24 18:20 UTC. Time now 2018-Feb-25 08:16 UTC.
Position N 33°45' W 118°13'.

; draft 6.5 m.

MMSI: 365903144.

Date/timePositionNaut miles runAvg speedWind from/ knotsBaromVisibWave heightAir tempDewpointWater temp
2018-Feb-24 18:20N 33°45' W 118°13'1 2.7
2018-Feb-24 18:00N 33°45' W 118°13'4 7.1
2018-Feb-24 17:28N 33°44' W 118°08'2 4.0
2018-Feb-24 16:59N 33°44' W 118°06'0 0.1
2018-Feb-24 16:29N 33°44' W 118°06'0 0.0
2018-Feb-24 16:00N 33°44' W 118°06'2 3.1
2018-Feb-24 15:30N 33°44' W 118°08'3 7.1
2018-Feb-24 15:00N 33°44' W 118°12'2 3.4
2018-Feb-24 14:30N 33°45' W 118°13'0 0.0
2018-Feb-23 22:10N 33°45' W 118°13'0 0.0
2018-Feb-23 21:59N 33°45' W 118°13'0 0.0
2018-Feb-23 21:30N 33°45' W 118°13'0 0.0
2018-Feb-23 21:00N 33°45' W 118°13'0 0.1
2018-Feb-23 20:30N 33°45' W 118°13'0 0.1
2018-Feb-23 20:00N 33°45' W 118°13'3 5.2
2018-Feb-23 19:29N 33°43' W 118°15'2 3.2
2018-Feb-23 19:01N 33°44' W 118°15'0 0.7
2018-Feb-23 18:31N 33°45' W 118°15'0 0.4
2018-Feb-23 18:01N 33°45' W 118°15'0 0.3
2018-Feb-23 17:31N 33°45' W 118°15'0 0.3
2018-Feb-23 17:00N 33°45' W 118°15'0 0.0
2018-Feb-23 16:30N 33°45' W 118°15'1 3.0
2018-Feb-23 16:00N 33°45' W 118°17'2 5.0
2018-Feb-23 15:30N 33°47' W 118°15'0 0.0
2018-Feb-23 15:00N 33°47' W 118°15'0 0.0
2018-Feb-23 14:30N 33°47' W 118°15'0 0.0
2018-Feb-23 13:59N 33°47' W 118°15'0 0.0
2018-Feb-23 13:30N 33°47' W 118°15'0 0.0
2018-Feb-23 12:59N 33°47' W 118°15'0 0.0
2018-Feb-23 12:30N 33°47' W 118°15'0 0.0
2018-Feb-23 12:00N 33°47' W 118°15'0 0.0
2018-Feb-23 11:30N 33°47' W 118°15'0 0.0
2018-Feb-23 11:00N 33°47' W 118°15'0 0.0
2018-Feb-23 10:30N 33°47' W 118°15'0 0.0
2018-Feb-23 10:00N 33°47' W 118°15'0 0.0
2018-Feb-23 09:30N 33°47' W 118°15'0 0.0
2018-Feb-23 09:00N 33°47' W 118°15'0 0.0
2018-Feb-23 08:30N 33°47' W 118°15'0 0.0
2018-Feb-23 08:00N 33°47' W 118°15'0 0.0
2018-Feb-23 07:30N 33°47' W 118°15'0 0.0
2018-Feb-23 06:59N 33°47' W 118°15'0 0.0
2018-Feb-23 06:30N 33°47' W 118°15'0 0.0
2018-Feb-23 06:00N 33°47' W 118°15'0 0.0
2018-Feb-23 05:30N 33°47' W 118°15'0 0.0
2018-Feb-23 04:59N 33°47' W 118°15'0 0.0
2018-Feb-23 04:30N 33°47' W 118°15'0 0.0
2018-Feb-23 04:00N 33°47' W 118°15'0 0.0
2018-Feb-23 03:30N 33°47' W 118°15'0 0.0
2018-Feb-23 03:00N 33°47' W 118°15'0 0.0
2018-Feb-23 02:30N 33°47' W 118°15'2 3.9
2018-Feb-23 02:00N 33°45' W 118°16'2 3.2
2018-Feb-23 01:30N 33°44' W 118°15'1 1.1
2018-Feb-23 01:01N 33°45' W 118°15'0 0.3
2018-Feb-23 00:30N 33°45' W 118°15'0 0.0
2018-Feb-23 00:00N 33°45' W 118°15'0 0.2
2018-Feb-22 23:30N 33°45' W 118°15'0 0.5
2018-Feb-22 23:01N 33°44' W 118°15'0 0.2
2018-Feb-22 22:31N 33°44' W 118°15'0 0.5
2018-Feb-22 22:00N 33°45' W 118°15'0 0.2
2018-Feb-22 21:30N 33°45' W 118°15'0 0.0
2018-Feb-22 21:01N 33°45' W 118°15'0 0.3
2018-Feb-22 20:30N 33°44' W 118°15'0 0.7
2018-Feb-22 20:00N 33°45' W 118°15'0 0.2
2018-Feb-22 19:30N 33°45' W 118°15'1 1.2
2018-Feb-22 19:00N 33°44' W 118°15'2 3.0
2018-Feb-22 18:30N 33°45' W 118°16'2 3.6
2018-Feb-22 18:00N 33°47' W 118°15'0 0.0
2018-Feb-21 21:12N 33°47' W 118°15'0 0.0
2018-Feb-21 21:00N 33°47' W 118°15'0 0.0
2018-Feb-21 20:30N 33°47' W 118°15'0 0.0
2018-Feb-21 20:00N 33°47' W 118°15'0 0.0
2018-Feb-21 19:30N 33°47' W 118°15'0 0.0
2018-Feb-21 19:00N 33°47' W 118°15'0 0.0
2018-Feb-21 18:30N 33°47' W 118°15'0 0.0
2018-Feb-21 18:00N 33°47' W 118°15'0 0.0
2018-Feb-21 17:30N 33°47' W 118°15'0 0.0
2018-Feb-21 17:00N 33°47' W 118°15'0 0.0
2018-Feb-21 16:30N 33°47' W 118°15'0 0.0
2018-Feb-21 16:00N 33°47' W 118°15'0 0.2
2018-Feb-21 15:31N 33°46' W 118°15'1 2.5
2018-Feb-21 15:00N 33°46' W 118°13'1 0.1
2018-Feb-21 00:09N 33°45' W 118°13'0 0.0
2018-Feb-21 00:00N 33°45' W 118°13'1 1.4
2018-Feb-20 23:30N 33°46' W 118°13'2 3.0
2018-Feb-20 23:01N 33°46' W 118°15'1 1.4
2018-Feb-20 22:31N 33°46' W 118°15'3 5.5
2018-Feb-20 22:00N 33°44' W 118°16'2 3.1
2018-Feb-20 21:31N 33°44' W 118°15'0 0.1
2018-Feb-20 21:01N 33°44' W 118°15'0 0.1
2018-Feb-20 20:30N 33°44' W 118°15'0 0.5
2018-Feb-20 20:00N 33°44' W 118°15'0 0.2
2018-Feb-20 19:31N 33°45' W 118°15'0 0.4
2018-Feb-20 19:00N 33°44' W 118°15'0 0.3
2018-Feb-20 18:30N 33°44' W 118°15'0 0.0
2018-Feb-20 18:00N 33°44' W 118°15'0 0.7
2018-Feb-20 17:30N 33°45' W 118°15'0 0.0
2018-Feb-20 17:00N 33°45' W 118°15'1 1.1
2018-Feb-20 16:30N 33°44' W 118°15'2 3.2
2018-Feb-20 16:00N 33°46' W 118°16'1 2.6
2018-Feb-20 15:30N 33°47' W 118°15'1 1.7
2018-Feb-20 15:00N 33°46' W 118°14'1 0.0
2018-Feb-19 21:21N 33°45' W 118°13'0 0.0
2018-Feb-19 21:00N 33°45' W 118°13'0 0.0
2018-Feb-19 20:30N 33°45' W 118°13'0 0.0
2018-Feb-19 20:00N 33°45' W 118°13'0 0.0
2018-Feb-19 19:30N 33°45' W 118°13'2 4.6
2018-Feb-19 19:00N 33°43' W 118°14'1 2.9
2018-Feb-19 18:30N 33°44' W 118°15'0 0.2
2018-Feb-19 18:00N 33°45' W 118°15'0 0.2
2018-Feb-19 17:30N 33°44' W 118°15'2 3.1
2018-Feb-19 17:00N 33°44' W 118°16'3 5.6
2018-Feb-19 16:30N 33°46' W 118°15'0 0.4
2018-Feb-19 16:00N 33°47' W 118°15'1 1.9
2018-Feb-19 15:30N 33°46' W 118°14'1 1.7
2018-Feb-19 15:00N 33°45' W 118°13'0 0.0
2018-Feb-19 14:30N 33°45' W 118°13'  
2018-Feb-17 01:10N 33°45' W 118°13'0 2.9
2018-Feb-17 01:00N 33°46' W 118°13'2 3.1
2018-Feb-17 00:30N 33°47' W 118°15'2 5.0
2018-Feb-17 00:00N 33°45' W 118°16'1 2.9
2018-Feb-16 23:30N 33°44' W 118°15'0 0.4
2018-Feb-16 23:00N 33°45' W 118°15'0 0.1
2018-Feb-16 22:30N 33°45' W 118°15'0 0.0
2018-Feb-16 22:00N 33°45' W 118°15'0 0.2
2018-Feb-16 21:30N 33°45' W 118°15'0 0.8
2018-Feb-16 21:00N 33°44' W 118°15'0 0.1
2018-Feb-16 20:31N 33°44' W 118°15'0 0.1
2018-Feb-16 20:00N 33°44' W 118°15'0 0.6
2018-Feb-16 19:30N 33°45' W 118°15'0 0.0
2018-Feb-16 19:01N 33°45' W 118°15'0 0.2
2018-Feb-16 18:30N 33°45' W 118°15'0 0.0
2018-Feb-16 18:01N 33°44' W 118°15'0 0.5
2018-Feb-16 17:30N 33°44' W 118°15'2 3.0
2018-Feb-16 17:00N 33°43' W 118°16'3 5.8
2018-Feb-16 16:30N 33°46' W 118°15'1 1.2
2018-Feb-16 16:00N 33°47' W 118°15'0 0.0
2018-Feb-16 15:30N 33°47' W 118°15'1 1.3
2018-Feb-16 15:00N 33°46' W 118°15'1 2.3
2018-Feb-16 14:30N 33°45' W 118°13'0 0.0
2018-Feb-15 21:51N 33°45' W 118°13'0 0.0
2018-Feb-15 21:30N 33°45' W 118°13'0 0.0
2018-Feb-15 21:01N 33°45' W 118°13'0 0.0
2018-Feb-15 20:30N 33°45' W 118°13'0 0.0
2018-Feb-15 20:00N 33°45' W 118°13'0 0.0
2018-Feb-15 19:30N 33°45' W 118°13'0 0.0
2018-Feb-15 19:00N 33°45' W 118°13'0 0.0
2018-Feb-15 18:29N 33°45' W 118°13'0 0.0
2018-Feb-15 18:00N 33°45' W 118°13'0 0.0
2018-Feb-15 17:30N 33°45' W 118°13'0 0.0
2018-Feb-15 17:01N 33°45' W 118°13'0 0.0
2018-Feb-14 21:42N 33°45' W 118°13'0 0.0
2018-Feb-14 21:30N 33°45' W 118°13'0 0.0
2018-Feb-14 20:59N 33°45' W 118°13'0 0.0
2018-Feb-14 20:30N 33°45' W 118°13'0 0.0
2018-Feb-14 20:00N 33°45' W 118°13'0 0.0
2018-Feb-14 19:30N 33°45' W 118°13'0 0.0
2018-Feb-14 19:00N 33°45' W 118°13'0 0.0
2018-Feb-14 18:29N 33°45' W 118°13'  
Track history (hours):
 
Tides and Currents Weather Stations Pressure Air Temp Water Temp Dewpoint Dewpoint Depression Visibility Wind Speed Wind Dir Waves Ship Positions

Elmer M

Owner: Manson Construction Co., SEATTLE, WA. More information available from US FCC via Universal Licensing System and Coast Guard Vessel Documentation Center.

Last reported at 2018-Feb-24 18:20 UTC. Time now 2018-Feb-25 08:16 UTC.
Position N 33°45' W 118°13'.

; draft 6.5 m.

MMSI: 365903144.

Date/timePositionNaut miles runAvg speedWind from/ knotsBaromVisibWave heightAir tempDewpointWater temp
2018-Feb-24 18:20N 33°45' W 118°13'1 2.7
2018-Feb-24 18:00N 33°45' W 118°13'4 7.1
2018-Feb-24 17:28N 33°44' W 118°08'2 4.0
2018-Feb-24 16:59N 33°44' W 118°06'0 0.1
2018-Feb-24 16:29N 33°44' W 118°06'0 0.0
2018-Feb-24 16:00N 33°44' W 118°06'2 3.1
2018-Feb-24 15:30N 33°44' W 118°08'3 7.1
2018-Feb-24 15:00N 33°44' W 118°12'2 3.4
2018-Feb-24 14:30N 33°45' W 118°13'0 0.0
2018-Feb-23 22:10N 33°45' W 118°13'0 0.0
2018-Feb-23 21:59N 33°45' W 118°13'0 0.0
2018-Feb-23 21:30N 33°45' W 118°13'0 0.0
2018-Feb-23 21:00N 33°45' W 118°13'0 0.1
2018-Feb-23 20:30N 33°45' W 118°13'0 0.1
2018-Feb-23 20:00N 33°45' W 118°13'3 5.2
2018-Feb-23 19:29N 33°43' W 118°15'2 3.2
2018-Feb-23 19:01N 33°44' W 118°15'0 0.7
2018-Feb-23 18:31N 33°45' W 118°15'0 0.4
2018-Feb-23 18:01N 33°45' W 118°15'0 0.3
2018-Feb-23 17:31N 33°45' W 118°15'0 0.3
2018-Feb-23 17:00N 33°45' W 118°15'0 0.0
2018-Feb-23 16:30N 33°45' W 118°15'1 3.0
2018-Feb-23 16:00N 33°45' W 118°17'2 5.0
2018-Feb-23 15:30N 33°47' W 118°15'0 0.0
2018-Feb-23 15:00N 33°47' W 118°15'0 0.0
2018-Feb-23 14:30N 33°47' W 118°15'0 0.0
2018-Feb-23 13:59N 33°47' W 118°15'0 0.0
2018-Feb-23 13:30N 33°47' W 118°15'0 0.0
2018-Feb-23 12:59N 33°47' W 118°15'0 0.0
2018-Feb-23 12:30N 33°47' W 118°15'0 0.0
2018-Feb-23 12:00N 33°47' W 118°15'0 0.0
2018-Feb-23 11:30N 33°47' W 118°15'0 0.0
2018-Feb-23 11:00N 33°47' W 118°15'0 0.0
2018-Feb-23 10:30N 33°47' W 118°15'0 0.0
2018-Feb-23 10:00N 33°47' W 118°15'0 0.0
2018-Feb-23 09:30N 33°47' W 118°15'0 0.0
2018-Feb-23 09:00N 33°47' W 118°15'0 0.0
2018-Feb-23 08:30N 33°47' W 118°15'0 0.0
2018-Feb-23 08:00N 33°47' W 118°15'0 0.0
2018-Feb-23 07:30N 33°47' W 118°15'0 0.0
2018-Feb-23 06:59N 33°47' W 118°15'0 0.0
2018-Feb-23 06:30N 33°47' W 118°15'0 0.0
2018-Feb-23 06:00N 33°47' W 118°15'0 0.0
2018-Feb-23 05:30N 33°47' W 118°15'0 0.0
2018-Feb-23 04:59N 33°47' W 118°15'0 0.0
2018-Feb-23 04:30N 33°47' W 118°15'0 0.0
2018-Feb-23 04:00N 33°47' W 118°15'0 0.0
2018-Feb-23 03:30N 33°47' W 118°15'0 0.0
2018-Feb-23 03:00N 33°47' W 118°15'0 0.0
2018-Feb-23 02:30N 33°47' W 118°15'2 3.9
2018-Feb-23 02:00N 33°45' W 118°16'2 3.2
2018-Feb-23 01:30N 33°44' W 118°15'1 1.1
2018-Feb-23 01:01N 33°45' W 118°15'0 0.3
2018-Feb-23 00:30N 33°45' W 118°15'0 0.0
2018-Feb-23 00:00N 33°45' W 118°15'0 0.2
2018-Feb-22 23:30N 33°45' W 118°15'0 0.5
2018-Feb-22 23:01N 33°44' W 118°15'0 0.2
2018-Feb-22 22:31N 33°44' W 118°15'0 0.5
2018-Feb-22 22:00N 33°45' W 118°15'0 0.2
2018-Feb-22 21:30N 33°45' W 118°15'0 0.0
2018-Feb-22 21:01N 33°45' W 118°15'0 0.3
2018-Feb-22 20:30N 33°44' W 118°15'0 0.7
2018-Feb-22 20:00N 33°45' W 118°15'0 0.2
2018-Feb-22 19:30N 33°45' W 118°15'1 1.2
2018-Feb-22 19:00N 33°44' W 118°15'2 3.0
2018-Feb-22 18:30N 33°45' W 118°16'2 3.6
2018-Feb-22 18:00N 33°47' W 118°15'0 0.0
2018-Feb-21 21:12N 33°47' W 118°15'0 0.0
2018-Feb-21 21:00N 33°47' W 118°15'0 0.0
2018-Feb-21 20:30N 33°47' W 118°15'0 0.0
2018-Feb-21 20:00N 33°47' W 118°15'0 0.0
2018-Feb-21 19:30N 33°47' W 118°15'0 0.0
2018-Feb-21 19:00N 33°47' W 118°15'0 0.0
2018-Feb-21 18:30N 33°47' W 118°15'0 0.0
2018-Feb-21 18:00N 33°47' W 118°15'0 0.0
2018-Feb-21 17:30N 33°47' W 118°15'0 0.0
2018-Feb-21 17:00N 33°47' W 118°15'0 0.0
2018-Feb-21 16:30N 33°47' W 118°15'0 0.0
2018-Feb-21 16:00N 33°47' W 118°15'0 0.2
2018-Feb-21 15:31N 33°46' W 118°15'1 2.5
2018-Feb-21 15:00N 33°46' W 118°13'1 0.1
2018-Feb-21 00:09N 33°45' W 118°13'0 0.0
2018-Feb-21 00:00N 33°45' W 118°13'1 1.4
2018-Feb-20 23:30N 33°46' W 118°13'2 3.0
2018-Feb-20 23:01N 33°46' W 118°15'1 1.4
2018-Feb-20 22:31N 33°46' W 118°15'3 5.5
2018-Feb-20 22:00N 33°44' W 118°16'2 3.1
2018-Feb-20 21:31N 33°44' W 118°15'0 0.1
2018-Feb-20 21:01N 33°44' W 118°15'0 0.1
2018-Feb-20 20:30N 33°44' W 118°15'0 0.5
2018-Feb-20 20:00N 33°44' W 118°15'0 0.2
2018-Feb-20 19:31N 33°45' W 118°15'0 0.4
2018-Feb-20 19:00N 33°44' W 118°15'0 0.3
2018-Feb-20 18:30N 33°44' W 118°15'0 0.0
2018-Feb-20 18:00N 33°44' W 118°15'0 0.7
2018-Feb-20 17:30N 33°45' W 118°15'0 0.0
2018-Feb-20 17:00N 33°45' W 118°15'1 1.1
2018-Feb-20 16:30N 33°44' W 118°15'2 3.2
2018-Feb-20 16:00N 33°46' W 118°16'1 2.6
2018-Feb-20 15:30N 33°47' W 118°15'1 1.7
2018-Feb-20 15:00N 33°46' W 118°14'1 0.0
2018-Feb-19 21:21N 33°45' W 118°13'0 0.0
2018-Feb-19 21:00N 33°45' W 118°13'0 0.0
2018-Feb-19 20:30N 33°45' W 118°13'0 0.0
2018-Feb-19 20:00N 33°45' W 118°13'0 0.0
2018-Feb-19 19:30N 33°45' W 118°13'2 4.6
2018-Feb-19 19:00N 33°43' W 118°14'1 2.9
2018-Feb-19 18:30N 33°44' W 118°15'0 0.2
2018-Feb-19 18:00N 33°45' W 118°15'0 0.2
2018-Feb-19 17:30N 33°44' W 118°15'2 3.1
2018-Feb-19 17:00N 33°44' W 118°16'3 5.6
2018-Feb-19 16:30N 33°46' W 118°15'0 0.4
2018-Feb-19 16:00N 33°47' W 118°15'1 1.9
2018-Feb-19 15:30N 33°46' W 118°14'1 1.7
2018-Feb-19 15:00N 33°45' W 118°13'0 0.0
2018-Feb-19 14:30N 33°45' W 118°13'  
2018-Feb-17 01:10N 33°45' W 118°13'0 2.9
2018-Feb-17 01:00N 33°46' W 118°13'2 3.1
2018-Feb-17 00:30N 33°47' W 118°15'2 5.0
2018-Feb-17 00:00N 33°45' W 118°16'1 2.9
2018-Feb-16 23:30N 33°44' W 118°15'0 0.4
2018-Feb-16 23:00N 33°45' W 118°15'0 0.1
2018-Feb-16 22:30N 33°45' W 118°15'0 0.0
2018-Feb-16 22:00N 33°45' W 118°15'0 0.2
2018-Feb-16 21:30N 33°45' W 118°15'0 0.8
2018-Feb-16 21:00N 33°44' W 118°15'0 0.1
2018-Feb-16 20:31N 33°44' W 118°15'0 0.1
2018-Feb-16 20:00N 33°44' W 118°15'0 0.6
2018-Feb-16 19:30N 33°45' W 118°15'0 0.0
2018-Feb-16 19:01N 33°45' W 118°15'0 0.2
2018-Feb-16 18:30N 33°45' W 118°15'0 0.0
2018-Feb-16 18:01N 33°44' W 118°15'0 0.5
2018-Feb-16 17:30N 33°44' W 118°15'2 3.0
2018-Feb-16 17:00N 33°43' W 118°16'3 5.8
2018-Feb-16 16:30N 33°46' W 118°15'1 1.2
2018-Feb-16 16:00N 33°47' W 118°15'0 0.0
2018-Feb-16 15:30N 33°47' W 118°15'1 1.3
2018-Feb-16 15:00N 33°46' W 118°15'1 2.3
2018-Feb-16 14:30N 33°45' W 118°13'0 0.0
2018-Feb-15 21:51N 33°45' W 118°13'0 0.0
2018-Feb-15 21:30N 33°45' W 118°13'0 0.0
2018-Feb-15 21:01N 33°45' W 118°13'0 0.0
2018-Feb-15 20:30N 33°45' W 118°13'0 0.0
2018-Feb-15 20:00N 33°45' W 118°13'0 0.0
2018-Feb-15 19:30N 33°45' W 118°13'0 0.0
2018-Feb-15 19:00N 33°45' W 118°13'0 0.0
2018-Feb-15 18:29N 33°45' W 118°13'0 0.0
2018-Feb-15 18:00N 33°45' W 118°13'0 0.0
2018-Feb-15 17:30N 33°45' W 118°13'0 0.0
2018-Feb-15 17:01N 33°45' W 118°13'0 0.0
2018-Feb-14 21:42N 33°45' W 118°13'0 0.0
2018-Feb-14 21:30N 33°45' W 118°13'0 0.0
2018-Feb-14 20:59N 33°45' W 118°13'0 0.0
2018-Feb-14 20:30N 33°45' W 118°13'0 0.0
2018-Feb-14 20:00N 33°45' W 118°13'0 0.0
2018-Feb-14 19:30N 33°45' W 118°13'0 0.0
2018-Feb-14 19:00N 33°45' W 118°13'0 0.0
2018-Feb-14 18:29N 33°45' W 118°13'  

Dump ship's entire track history